Main page
METAR-TAF:

METAR-TAF

Airports :

Edmonton International Airport

Edmonton, Alberta, Canada

latitude: 53-18N, longitude: 113-35W, elevation: 715 m

Current weather observation

The report was made 30 minutes ago, at 06:00 UTC
Wind 2 kt from the South
Temperature -2°C
Humidity 86%
Pressure 1018 hPa
Visibility: 32.2 km
Clear sky

METAR: CYEG 210600Z 18002KT 20SM SKC M02/M04 A3007 RMK SLP216

Time: 00:30 (06:30 UTC)

Forecast

The report was made 52 minutes ago, at 05:38 UTC
Forecast valid from 21 at 06 UTC to 22 at 06 UTC
Wind 3 kt from variable directions
Visibility: 10 km
Clear sky
From 21 at 1800 UTC
Wind 6 kt from the East/Southeast
Visibility: 10 km
Clear sky
Becoming
from 21 at 22 UTC to 21 at 24 UTC
Wind 12 kt from the Southeast

TAF: CYEG 210538Z 2106/2206 VRB03KT P6SM SKC FM211800 11006KT P6SM SKC BECMG 2122/2124 14012KT RMK NXT FCST BY 210900Z

Weather observations and forecasts of more than 4000 airports (METAR and TAF reports).

The available stations are represented by yellow and red dots on the map.

Hover mouse over dot to see the name of the station.

Then click to see weather observations and forecasts.

To change the map : click on the green buttons with a black cross to zoom in, on the green button with a dash to zoom out, or on the green arrows for adjacent maps.


METAR-TAF: